Current | Forecast
Updated: 5:00 PM +05 on June 23, 2017
Observed at Chelyabinsk, Russia
Temperature 70°F
Humidity 60%
Dew Point 55°F
Wind NW at 11 mph
Pressure 29.65 in (Steady)
Conditions Scattered Clouds
Visibility 6.2 miles
UV 3 out of 16
Clouds Scattered Clouds (SCT) : 4000 ft
Yesterday's Maximum 79°F
Yesterday's Minimum 54°F approx.
Yesterday's Cooling Degree Days 1 approx.
Sunrise4:04 AM +05
Sunset9:43 PM +05
Moon Rise3:51 AM +05
Moon Set8:27 PM +05
Moon PhaseMoon Phase
Waning Crescent
Raw METARMETAR USCC 231200Z 32005MPS 9999 SCT040CB 21/13 Q1004 R27/000060 NOSIG RMK QFE733


Monday
. High: 69° F.
Tuesday
. High: 75° F.
Wednesday
. High: 75° F.
Thursday
. High: 55° F.
Friday
. High: 51° F.
Saturday
. High: 59° F.
Sunday
. High: 50° F.
Monday
. High: 57° F.

Units: English | Metric

Find the Weather for any City, State or Zipcode, or Country:

U.S. State List | Severe Weather | Tropical Storms | Ski Conditions
United States | Canada | Central America | South America | Asia | Europe | Australia | Africa | Islands

Weather Underground

© Copyright 2017
The Weather Company, LLC